Time;durP1;ratioP1;P1;durP2;ratioP2;P2;SDS_P1;SDS_P2;PMS_P1;PMS_P2;Temp;Humidity;BMP_temperature;BMP_pressure;BME280_temperature;BME280_humidity;BME280_pressure;Samples;Min_cycle;Max_cycle;Signal;HPM_P1;HPM_P2
2022/04/27 00:00:59;;;;;;;19.20;18.00;;;9.20;76.90;;;;;;4973881;28;20619;-79
2022/04/27 00:03:25;;;;;;;19.33;17.97;;;9.10;76.60;;;;;;4979692;28;20225;-79
2022/04/27 00:05:51;;;;;;;20.03;18.70;;;9.20;77.40;;;;;;4976674;28;20244;-79
2022/04/27 00:08:16;;;;;;;21.77;20.17;;;9.30;76.00;;;;;;4978943;28;20310;-79
2022/04/27 00:10:42;;;;;;;20.07;18.70;;;9.20;77.00;;;;;;4994416;28;20681;-80
2022/04/27 00:13:16;;;;;;;19.70;18.30;;;9.20;76.10;;;;;;4980057;28;20320;-79
2022/04/27 00:15:42;;;;;;;20.27;18.80;;;9.30;75.00;;;;;;4976565;28;20290;-79
2022/04/27 00:18:07;;;;;;;21.70;20.30;;;9.10;76.70;;;;;;4979804;28;20459;-79
2022/04/27 00:20:33;;;;;;;20.20;18.80;;;9.00;76.90;;;;;;4977124;28;20319;-80
2022/04/27 00:22:59;;;;;;;20.17;18.77;;;9.00;79.50;;;;;;4980265;28;20822;-79
2022/04/27 00:25:24;;;;;;;21.90;20.33;;;9.00;81.10;;;;;;4975832;28;20264;-79
2022/04/27 00:27:50;;;;;;;22.60;20.90;;;9.00;80.50;;;;;;4978462;28;20237;-79
2022/04/27 00:30:16;;;;;;;22.60;21.10;;;9.00;80.30;;;;;;4976005;28;20229;-78
2022/04/27 00:32:41;;;;;;;23.37;21.57;;;9.10;78.20;;;;;;4996516;28;20228;-79
2022/04/27 00:35:08;;;;;;;22.73;21.00;;;9.10;77.60;;;;;;4993545;28;20689;-80
2022/04/27 00:37:34;;;;;;;22.93;21.13;;;9.10;78.70;;;;;;4979820;28;20606;-79
2022/04/27 00:40:00;;;;;;;24.93;23.07;;;8.90;79.50;;;;;;4976848;28;20979;-79
2022/04/27 00:42:26;;;;;;;23.17;21.37;;;8.90;81.00;;;;;;4978662;28;20452;-78
2022/04/27 00:44:52;;;;;;;22.67;21.07;;;8.90;81.80;;;;;;4976002;28;20506;-79
2022/04/27 00:47:18;;;;;;;22.73;20.93;;;9.00;80.40;;;;;;4978788;28;20665;-80
2022/04/27 00:49:50;;;;;;;23.90;22.20;;;9.00;81.20;;;;;;4976236;28;20327;-80
2022/04/27 00:52:17;;;;;;;24.73;22.93;;;9.00;81.10;;;;;;4980962;28;20448;-82
2022/04/27 00:54:47;;;;;;;24.17;22.37;;;9.10;81.70;;;;;;4980382;28;20444;-79
2022/04/27 00:57:13;;;;;;;23.47;21.87;;;9.00;78.10;;;;;;4979010;28;20452;-80
2022/04/27 00:59:39;;;;;;;26.40;24.17;;;9.10;78.40;;;;;;4976450;28;20972;-80
2022/04/27 01:02:05;;;;;;;23.70;21.77;;;9.10;77.00;;;;;;4978564;28;20447;-80
2022/04/27 01:04:36;;;;;;;23.63;21.80;;;9.00;77.20;;;;;;4976784;28;20472;-80
2022/04/27 01:07:03;;;;;;;25.60;23.70;;;9.00;79.70;;;;;;4978693;28;20570;-80
2022/04/27 01:09:29;;;;;;;25.93;23.97;;;9.10;78.90;;;;;;4976302;28;20865;-80
2022/04/27 01:11:57;;;;;;;22.20;20.57;;;9.00;79.90;;;;;;4979001;28;20455;-79
2022/04/27 01:14:22;;;;;;;23.53;21.80;;;9.00;80.40;;;;;;4976104;28;20448;-79
2022/04/27 01:16:55;;;;;;;23.80;21.90;;;9.20;79.20;;;;;;4978442;28;20799;-79
2022/04/27 01:19:26;;;;;;;28.07;25.83;;;9.30;77.50;;;;;;4976835;28;20225;-80
2022/04/27 01:21:53;;;;;;;26.00;24.00;;;9.30;75.60;;;;;;4977632;28;20598;-80
2022/04/27 01:24:21;;;;;;;24.83;22.80;;;9.10;76.00;;;;;;4977689;28;20464;-80
2022/04/27 01:26:50;;;;;;;26.83;24.63;;;9.10;76.50;;;;;;4978484;28;20964;-80
2022/04/27 01:29:17;;;;;;;25.40;23.47;;;9.10;76.30;;;;;;4978595;28;20810;-80
2022/04/27 01:31:46;;;;;;;25.67;23.57;;;9.10;77.70;;;;;;4997037;28;20546;-80
2022/04/27 01:34:12;;;;;;;25.53;23.53;;;9.10;77.60;;;;;;4979638;28;20452;-80
2022/04/27 01:36:38;;;;;;;25.77;23.60;;;9.10;77.50;;;;;;4980161;28;20480;-80
2022/04/27 01:39:05;;;;;;;25.60;23.60;;;9.20;77.80;;;;;;4981716;28;20475;-80
2022/04/27 01:41:31;;;;;;;25.87;23.67;;;9.20;76.30;;;;;;4978214;28;20452;-80
2022/04/27 01:43:57;;;;;;;25.50;23.40;;;9.20;76.00;;;;;;4980265;28;20510;-79
2022/04/27 01:46:23;;;;;;;25.77;23.77;;;9.30;75.00;;;;;;4978969;28;20632;-79
2022/04/27 01:48:50;;;;;;;26.90;24.70;;;9.30;74.90;;;;;;4981952;28;20989;-80
2022/04/27 01:51:18;;;;;;;29.30;26.50;;;9.20;74.80;;;;;;4982443;28;20922;-80
2022/04/27 01:56:28;;;;;;;28.60;26.30;;;9.30;75.70;;;;;;5000938;28;20459;-80
2022/04/27 01:58:54;;;;;;;26.13;23.90;;;9.20;76.10;;;;;;4984685;28;20825;-80
2022/04/27 02:01:21;;;;;;;27.40;25.07;;;9.30;76.50;;;;;;4981665;28;20510;-81
2022/04/27 02:03:47;;;;;;;27.77;25.37;;;9.10;77.00;;;;;;4983823;28;20444;-80
2022/04/27 02:06:16;;;;;;;28.90;26.50;;;9.10;78.50;;;;;;4984172;28;20448;-80
2022/04/27 02:08:42;;;;;;;29.90;27.40;;;9.00;79.90;;;;;;4984563;28;20971;-80
2022/04/27 02:11:08;;;;;;;29.97;27.33;;;9.00;79.90;;;;;;4987272;28;20530;-80
2022/04/27 02:13:34;;;;;;;29.33;26.63;;;9.10;79.50;;;;;;4983393;28;20535;-81
2022/04/27 02:16:01;;;;;;;28.30;25.93;;;9.10;80.40;;;;;;4984963;28;20245;-80
2022/04/27 02:18:27;;;;;;;30.67;28.03;;;9.10;80.00;;;;;;4984061;28;20232;-87
2022/04/27 02:20:52;;;;;;;31.13;28.33;;;9.20;78.90;;;;;;4981602;28;20456;-81
2022/04/27 02:23:20;;;;;;;30.37;27.77;;;9.20;78.90;;;;;;4980136;28;20655;-81
2022/04/27 02:25:46;;;;;;;31.00;28.27;;;9.20;79.10;;;;;;4976017;28;20343;-80
2022/04/27 02:28:12;;;;;;;29.90;27.40;;;9.40;77.50;;;;;;4978968;28;20822;-80
2022/04/27 02:30:38;;;;;;;30.53;28.03;;;9.40;76.60;;;;;;4976856;28;20463;-80
2022/04/27 02:33:03;;;;;;;29.80;27.33;;;9.30;78.70;;;;;;4979325;28;20224;-79
2022/04/27 02:35:29;;;;;;;30.27;27.80;;;9.30;78.10;;;;;;4975941;28;20225;-80
2022/04/27 02:37:56;;;;;;;30.23;27.57;;;9.40;77.00;;;;;;4978295;28;20311;-80
2022/04/27 02:40:22;;;;;;;29.37;26.77;;;9.40;77.50;;;;;;4976248;28;20236;-79
2022/04/27 02:42:47;;;;;;;30.30;27.50;;;9.30;78.70;;;;;;4978215;28;20448;-80
2022/04/27 02:45:13;;;;;;;29.80;27.40;;;9.30;79.10;;;;;;4966713;28;21003;-79
2022/04/27 02:47:39;;;;;;;29.27;26.87;;;9.20;79.70;;;;;;4977505;28;20229;-78
2022/04/27 02:52:49;;;;;;;30.53;27.93;;;9.30;79.00;;;;;;4993482;28;20371;-79
2022/04/27 02:55:15;;;;;;;30.03;27.73;;;9.20;80.10;;;;;;4974484;28;20550;-79
2022/04/27 02:57:41;;;;;;;29.47;27.07;;;9.30;79.60;;;;;;4995310;28;20229;-78
2022/04/27 03:00:07;;;;;;;28.77;26.40;;;9.30;77.90;;;;;;4975245;28;20828;-84
2022/04/27 03:02:33;;;;;;;28.13;25.83;;;9.40;77.70;;;;;;4978903;28;20232;-84
2022/04/27 03:05:00;;;;;;;27.67;25.47;;;9.40;76.40;;;;;;4976262;28;20464;-84
2022/04/27 03:07:28;;;;;;;27.73;25.63;;;9.50;75.20;;;;;;4978487;28;20592;-84
2022/04/27 03:09:54;;;;;;;28.97;26.40;;;9.50;75.20;;;;;;4975485;28;20456;-84
2022/04/27 03:12:22;;;;;;;27.17;24.97;;;9.50;74.50;;;;;;4979236;28;20471;-84
2022/04/27 03:14:48;;;;;;;27.00;24.90;;;9.40;75.40;;;;;;4975640;28;20463;-84
2022/04/27 03:17:14;;;;;;;27.87;25.57;;;9.50;75.80;;;;;;4979230;28;20452;-83
2022/04/27 03:19:39;;;;;;;27.90;25.70;;;9.40;76.30;;;;;;4976935;28;20308;-83
2022/04/27 03:22:05;;;;;;;27.70;25.60;;;9.50;75.30;;;;;;4978759;28;20236;-84
2022/04/27 03:24:31;;;;;;;27.47;25.27;;;9.40;76.90;;;;;;4976834;28;20768;-84
2022/04/27 03:26:56;;;;;;;27.90;25.60;;;9.30;77.20;;;;;;4978866;28;20267;-85
2022/04/27 03:29:22;;;;;;;28.17;25.90;;;9.30;78.30;;;;;;4976435;28;20282;-84
2022/04/27 03:31:47;;;;;;;28.07;25.97;;;9.30;78.00;;;;;;4979185;28;20615;-85
2022/04/27 03:34:13;;;;;;;27.67;25.50;;;9.30;79.00;;;;;;4976978;28;20514;-84
2022/04/27 03:36:39;;;;;;;28.50;26.30;;;9.40;78.10;;;;;;4979762;28;20704;-84
2022/04/27 03:39:05;;;;;;;27.47;25.20;;;9.40;77.70;;;;;;4978158;28;20228;-86
2022/04/27 03:41:30;;;;;;;28.03;25.83;;;9.30;77.40;;;;;;4980607;28;20221;-83
2022/04/27 03:43:56;;;;;;;27.70;25.60;;;9.20;78.80;;;;;;4978320;28;20223;-83
2022/04/27 03:46:22;;;;;;;28.57;26.20;;;9.20;79.70;;;;;;4982301;28;20312;-83
2022/04/27 03:48:48;;;;;;;28.07;25.87;;;9.20;80.40;;;;;;4979694;28;20282;-84
2022/04/27 03:51:14;;;;;;;27.60;25.50;;;9.20;80.80;;;;;;4997598;28;20315;-86
2022/04/27 03:53:40;;;;;;;27.33;25.43;;;9.10;80.40;;;;;;4979196;28;20454;-83
2022/04/27 03:56:06;;;;;;;28.83;26.50;;;9.10;80.20;;;;;;4980980;28;20443;-83
2022/04/27 03:58:32;;;;;;;28.10;26.03;;;9.30;79.30;;;;;;4980035;28;20455;-84
2022/04/27 04:00:58;;;;;;;26.90;24.90;;;9.30;78.00;;;;;;4980704;28;20455;-86
2022/04/27 04:03:24;;;;;;;26.73;24.73;;;9.30;79.00;;;;;;4980537;28;20830;-86
2022/04/27 04:05:49;;;;;;;27.30;25.20;;;9.20;79.50;;;;;;4980921;28;20558;-85
2022/04/27 04:08:16;;;;;;;28.77;26.57;;;9.20;81.10;;;;;;4968318;28;20393;-82
2022/04/27 04:10:41;;;;;;;29.47;27.00;;;9.10;80.90;;;;;;4990557;28;20220;-80
2022/04/27 04:13:08;;;;;;;28.77;26.47;;;9.30;80.40;;;;;;4989450;28;20444;-80
2022/04/27 04:15:37;;;;;;;25.63;23.93;;;9.20;79.60;;;;;;4996693;28;20720;-80
2022/04/27 04:18:06;;;;;;;28.23;26.23;;;9.20;80.20;;;;;;4996500;28;20465;-80
2022/04/27 04:20:32;;;;;;;29.00;26.63;;;9.30;79.40;;;;;;4999886;28;20455;-81
2022/04/27 04:22:58;;;;;;;27.70;25.60;;;9.30;79.10;;;;;;4996821;28;20455;-79
2022/04/27 04:30:52;;;;;;;27.60;25.53;;;9.30;81.40;;;;;;4995637;28;20466;-81
2022/04/27 04:33:18;;;;;;;29.37;27.10;;;9.30;80.70;;;;;;4979212;28;20546;-81
2022/04/27 04:35:44;;;;;;;27.00;24.93;;;9.30;81.30;;;;;;4977898;28;20813;-82
2022/04/27 04:38:09;;;;;;;28.50;26.30;;;9.30;81.30;;;;;;4979058;28;20606;-80
2022/04/27 04:40:35;;;;;;;26.67;24.70;;;9.40;80.40;;;;;;4977975;28;20617;-81
2022/04/27 04:43:01;;;;;;;29.47;26.97;;;9.40;79.10;;;;;;4981622;28;20593;-81
2022/04/27 04:45:27;;;;;;;26.30;24.40;;;9.50;78.70;;;;;;4977405;28;20464;-81
2022/04/27 04:47:53;;;;;;;27.17;25.17;;;9.40;79.00;;;;;;4997486;28;20239;-80
2022/04/27 04:50:19;;;;;;;26.90;25.00;;;9.40;79.40;;;;;;4980439;28;20460;-81
2022/04/27 04:52:48;;;;;;;28.20;25.90;;;9.40;79.70;;;;;;5001709;28;20661;-81
2022/04/27 04:55:14;;;;;;;27.23;25.20;;;9.40;79.80;;;;;;4987022;28;20546;-81
2022/04/27 04:57:40;;;;;;;27.70;25.50;;;9.40;81.20;;;;;;5015890;28;20442;-81
2022/04/27 05:00:09;;;;;;;25.03;23.10;;;9.40;80.20;;;;;;5016482;28;20423;-82
2022/04/27 05:02:35;;;;;;;27.40;25.30;;;9.40;80.70;;;;;;5017009;28;20489;-90
2022/04/27 05:05:05;;;;;;;27.97;25.83;;;9.50;79.90;;;;;;5014358;28;20533;-82
2022/04/27 05:07:34;;;;;;;26.23;24.33;;;9.50;80.20;;;;;;5014987;28;20779;-82
2022/04/27 05:10:00;;;;;;;27.20;25.10;;;9.50;78.80;;;;;;5015179;28;20469;-81
2022/04/27 05:12:26;;;;;;;29.93;27.60;;;9.50;79.50;;;;;;5014782;28;20494;-82
2022/04/27 05:14:52;;;;;;;26.30;24.13;;;9.50;79.70;;;;;;5014361;28;20920;-82
2022/04/27 05:17:18;;;;;;;27.47;25.20;;;9.60;79.50;;;;;;5015423;28;20760;-81
2022/04/27 05:19:44;;;;;;;27.87;25.80;;;9.60;78.20;;;;;;5016328;28;20434;-81
2022/04/27 05:22:10;;;;;;;28.00;25.37;;;9.60;78.40;;;;;;5016160;28;20423;-82
2022/04/27 05:24:36;;;;;;;26.37;24.47;;;9.50;78.90;;;;;;5016349;28;20501;-82
2022/04/27 05:27:02;;;;;;;26.30;24.30;;;9.40;80.00;;;;;;5016353;28;20291;-83
2022/04/27 05:32:12;;;;;;;27.27;25.10;;;9.50;80.70;;;;;;5034117;28;20450;-82
2022/04/27 05:34:38;;;;;;;29.20;26.70;;;9.50;80.00;;;;;;5015825;28;20423;-81
2022/04/27 05:37:04;;;;;;;26.90;24.87;;;9.60;79.40;;;;;;5016023;28;20771;-82
2022/04/27 05:39:30;;;;;;;28.35;26.15;;;9.60;78.50;;;;;;5015627;28;20786;-80
2022/04/27 05:41:56;;;;;;;27.20;24.80;;;9.60;78.30;;;;;;5015708;28;20176;-80
2022/04/27 05:44:23;;;;;;;23.77;21.73;;;9.70;77.70;;;;;;5015973;28;20568;-82
2022/04/27 05:46:50;;;;;;;25.53;23.63;;;9.60;78.30;;;;;;5015372;28;20361;-82
2022/04/27 05:49:15;;;;;;;27.40;25.30;;;9.50;78.90;;;;;;5015823;28;20418;-81
2022/04/27 05:51:41;;;;;;;26.93;24.73;;;9.60;78.60;;;;;;5012675;28;20411;-81
2022/04/27 05:54:07;;;;;;;27.20;25.10;;;9.70;78.20;;;;;;5009788;28;20172;-82
2022/04/27 05:56:33;;;;;;;28.87;26.73;;;9.70;77.40;;;;;;5016187;28;20185;-82
2022/04/27 05:58:59;;;;;;;27.07;25.07;;;9.80;77.70;;;;;;5016155;28;20181;-83
2022/04/27 06:01:25;;;;;;;28.60;26.20;;;9.70;76.90;;;;;;5016369;28;20541;-81
2022/04/27 06:03:50;;;;;;;26.77;24.67;;;9.80;76.50;;;;;;5015910;28;20420;-83
2022/04/27 06:06:16;;;;;;;24.33;22.47;;;9.80;77.30;;;;;;5015852;28;20498;-83
2022/04/27 06:08:42;;;;;;;25.07;23.17;;;9.80;76.20;;;;;;5012934;28;20626;-81
2022/04/27 06:11:08;;;;;;;26.10;24.00;;;9.90;76.70;;;;;;5007313;28;20177;-80
2022/04/27 06:13:33;;;;;;;26.27;24.40;;;9.90;75.20;;;;;;5004969;28;20581;-80
2022/04/27 06:15:59;;;;;;;23.27;21.40;;;9.90;76.60;;;;;;5006243;28;20207;-80
2022/04/27 06:18:25;;;;;;;26.40;24.33;;;10.00;74.40;;;;;;5004894;28;20173;-80
2022/04/27 06:20:52;;;;;;;25.67;23.67;;;10.00;73.90;;;;;;5009693;28;20177;-80
2022/04/27 06:23:18;;;;;;;27.30;25.20;;;10.00;73.70;;;;;;5006488;28;20462;-80
2022/04/27 06:25:47;;;;;;;17.87;16.37;;;10.00;73.30;;;;;;5004290;28;20247;-80
2022/04/27 06:28:13;;;;;;;18.67;17.03;;;10.00;72.30;;;;;;5008609;28;20414;-78
2022/04/27 06:30:39;;;;;;;20.53;18.57;;;10.00;73.10;;;;;;5005043;28;20916;-79
2022/04/27 06:33:05;;;;;;;24.63;22.70;;;10.00;74.70;;;;;;5003835;28;20458;-80
2022/04/27 06:35:31;;;;;;;26.20;23.90;;;10.00;73.40;;;;;;5015446;28;20979;-80
2022/04/27 06:37:58;;;;;;;25.07;22.97;;;9.90;74.60;;;;;;5032872;28;20502;-80
2022/04/27 06:40:24;;;;;;;23.60;21.63;;;9.90;75.80;;;;;;5015127;28;20447;-79
2022/04/27 06:42:51;;;;;;;26.77;24.67;;;9.90;76.50;;;;;;5015341;28;20765;-79
2022/04/27 06:45:17;;;;;;;25.23;23.13;;;10.00;74.80;;;;;;5015264;28;20867;-80
2022/04/27 06:47:43;;;;;;;25.07;23.17;;;10.20;73.70;;;;;;5015514;28;20403;-80
2022/04/27 06:50:12;;;;;;;25.50;23.60;;;10.20;71.30;;;;;;5015767;28;20469;-80
2022/04/27 06:52:47;;;;;;;26.63;24.47;;;10.20;72.60;;;;;;5015362;28;20291;-79
2022/04/27 06:55:15;;;;;;;28.67;26.57;;;10.30;73.30;;;;;;5015581;28;20446;-81
2022/04/27 06:57:41;;;;;;;25.27;23.47;;;10.20;72.10;;;;;;5015538;28;20415;-80
2022/04/27 07:00:12;;;;;;;24.70;22.90;;;10.20;72.60;;;;;;5004520;28;20990;-81
2022/04/27 07:02:43;;;;;;;25.00;23.30;;;10.30;72.40;;;;;;5004898;28;20177;-81
2022/04/27 07:05:23;;;;;;;24.63;22.83;;;10.40;71.00;;;;;;4996321;28;20519;-81
2022/04/27 07:07:49;;;;;;;26.13;24.23;;;10.30;70.50;;;;;;4995727;28;20491;-81
2022/04/27 07:10:49;;;;;;;20.67;18.90;;;10.30;71.50;;;;;;4996068;28;20504;-89
2022/04/27 07:13:15;;;;;;;20.30;18.77;;;10.30;71.50;;;;;;4996191;28;20205;-81
2022/04/27 07:15:41;;;;;;;19.57;18.10;;;10.30;70.60;;;;;;4995590;28;20861;-81
2022/04/27 07:18:07;;;;;;;20.90;19.20;;;10.30;70.90;;;;;;4995768;28;20408;-89
2022/04/27 07:20:33;;;;;;;21.57;20.07;;;10.30;70.40;;;;;;4995170;28;20181;-80
2022/04/27 07:22:58;;;;;;;24.40;22.70;;;10.30;70.50;;;;;;4994857;28;20185;-81
2022/04/27 07:25:24;;;;;;;25.20;23.50;;;10.30;71.70;;;;;;4994538;28;21003;-81
2022/04/27 07:27:50;;;;;;;19.90;18.10;;;10.30;72.40;;;;;;4994590;28;20180;-81
2022/04/27 07:30:16;;;;;;;20.27;18.77;;;10.30;71.50;;;;;;4994526;28;20529;-81
2022/04/27 07:32:42;;;;;;;22.37;20.77;;;10.30;70.30;;;;;;4994578;28;20220;-81
2022/04/27 07:35:08;;;;;;;20.53;19.10;;;10.30;69.80;;;;;;4994412;28;20645;-80
2022/04/27 07:37:37;;;;;;;20.03;18.67;;;10.40;70.90;;;;;;4994596;28;20483;-82
2022/04/27 07:40:06;;;;;;;22.00;20.20;;;10.50;68.80;;;;;;4994362;28;20417;-81
2022/04/27 07:42:32;;;;;;;20.07;18.57;;;10.50;69.60;;;;;;4994564;28;20420;-81
2022/04/27 07:44:58;;;;;;;19.53;18.23;;;10.60;69.70;;;;;;4993970;28;20468;-80
2022/04/27 07:47:24;;;;;;;19.93;18.63;;;10.60;66.90;;;;;;4994828;28;20787;-82
2022/04/27 07:49:49;;;;;;;20.63;19.17;;;10.60;66.30;;;;;;4994296;28;20185;-81
2022/04/27 07:52:15;;;;;;;20.77;19.47;;;10.40;66.80;;;;;;4994467;28;20169;-80
2022/04/27 07:54:42;;;;;;;19.73;18.63;;;10.40;66.80;;;;;;4994268;28;20181;-80
2022/04/27 07:57:08;;;;;;;23.17;21.67;;;10.50;66.70;;;;;;4994178;28;20279;-80
2022/04/27 07:59:33;;;;;;;20.40;19.00;;;10.60;67.50;;;;;;4994462;28;20444;-80
2022/04/27 08:01:59;;;;;;;21.93;20.33;;;10.70;66.90;;;;;;4994030;28;20185;-80
2022/04/27 08:04:25;;;;;;;22.30;20.90;;;10.80;65.30;;;;;;4994355;28;20197;-80
2022/04/27 08:06:50;;;;;;;20.67;19.07;;;10.70;64.10;;;;;;4994148;28;20633;-80
2022/04/27 08:09:16;;;;;;;19.37;18.07;;;10.80;65.40;;;;;;4994308;28;20178;-81
2022/04/27 08:11:42;;;;;;;20.23;19.03;;;10.90;66.90;;;;;;4995699;28;20169;-81
2022/04/27 08:14:08;;;;;;;20.70;19.33;;;10.90;64.00;;;;;;5014365;28;20511;-80
2022/04/27 08:16:34;;;;;;;19.80;18.60;;;11.00;63.60;;;;;;4995975;28;20260;-80
2022/04/27 08:18:59;;;;;;;23.20;21.80;;;10.90;62.30;;;;;;4994350;28;20185;-80
2022/04/27 08:21:27;;;;;;;22.30;21.00;;;10.90;60.20;;;;;;4994132;28;20434;-80
2022/04/27 08:23:53;;;;;;;22.83;21.43;;;11.00;60.90;;;;;;4995937;28;20611;-80
2022/04/27 08:26:19;;;;;;;26.97;25.37;;;10.90;60.50;;;;;;4997934;28;20492;-81
2022/04/27 08:28:48;;;;;;;21.53;20.13;;;10.90;60.40;;;;;;4997735;28;20459;-81
2022/04/27 08:31:16;;;;;;;22.40;21.10;;;11.00;59.80;;;;;;5008446;28;20434;-81
2022/04/27 08:33:42;;;;;;;21.47;20.20;;;11.10;59.30;;;;;;5017019;28;20502;-81
2022/04/27 08:36:14;;;;;;;22.73;21.23;;;11.10;59.90;;;;;;5014190;28;20482;-80
2022/04/27 08:38:39;;;;;;;21.27;19.90;;;11.30;59.70;;;;;;5008537;28;20957;-81
2022/04/27 08:41:05;;;;;;;21.50;20.10;;;11.40;59.70;;;;;;5017166;28;20416;-80
2022/04/27 08:43:31;;;;;;;21.50;20.20;;;11.60;58.60;;;;;;5016755;28;20177;-80
2022/04/27 08:46:02;;;;;;;23.27;21.77;;;11.80;57.30;;;;;;5016290;28;20208;-80
2022/04/27 08:48:28;;;;;;;22.30;20.90;;;11.90;54.70;;;;;;5017079;28;20172;-80
2022/04/27 08:50:54;;;;;;;23.70;22.20;;;11.90;54.60;;;;;;5016893;28;20434;-80
2022/04/27 08:53:21;;;;;;;26.90;25.30;;;12.00;55.90;;;;;;5008236;28;20905;-89
2022/04/27 08:55:47;;;;;;;23.50;22.00;;;12.10;57.40;;;;;;5001232;28;20190;-89
2022/04/27 08:58:15;;;;;;;24.77;23.27;;;12.10;56.50;;;;;;4997570;28;20786;-89
2022/04/27 09:00:42;;;;;;;25.60;23.90;;;12.20;56.70;;;;;;5000105;28;20534;-89
2022/04/27 09:03:33;;;;;;;26.70;24.80;;;12.20;52.60;;;;;;4998251;28;20478;-88
2022/04/27 09:06:04;;;;;;;25.70;24.00;;;12.30;54.80;;;;;;4997835;28;20475;-87
2022/04/27 09:08:55;;;;;;;29.30;27.00;;;12.40;52.80;;;;;;4998600;28;20504;-88
2022/04/27 09:11:28;;;;;;;25.40;23.90;;;12.30;54.40;;;;;;4997631;28;20412;-88
2022/04/27 09:14:01;;;;;;;25.80;24.27;;;12.20;53.00;;;;;;4997287;28;20443;-88
2022/04/27 09:22:23;;;;;;;27.50;25.57;;;12.00;52.70;;;;;;5016930;28;20435;-88
2022/04/27 09:24:54;;;;;;;25.67;24.10;;;12.00;53.10;;;;;;4998805;28;20460;-88
2022/04/27 09:27:21;;;;;;;25.27;23.77;;;12.00;52.80;;;;;;4999191;28;20264;-87
2022/04/27 09:30:07;;;;;;;23.70;22.20;;;12.00;54.20;;;;;;5015596;28;20493;-88
2022/04/27 09:32:34;;;;;;;26.77;25.03;;;12.00;52.50;;;;;;5019325;28;20411;-88
2022/04/27 09:35:02;;;;;;;26.33;24.77;;;12.10;54.00;;;;;;5017764;28;20423;-89
2022/04/27 09:37:30;;;;;;;29.30;27.30;;;12.10;52.90;;;;;;5018292;28;20930;-87
2022/04/27 09:40:08;;;;;;;26.93;25.30;;;12.30;52.50;;;;;;5017729;28;20474;-87
2022/04/27 09:42:36;;;;;;;27.20;25.40;;;12.40;52.90;;;;;;5018179;28;20465;-87
2022/04/27 09:45:17;;;;;;;24.83;23.50;;;12.50;50.50;;;;;;5017815;28;20495;-88
2022/04/27 09:48:00;;;;;;;24.87;23.57;;;12.50;50.60;;;;;;5012700;28;20442;-86
2022/04/27 09:50:49;;;;;;;26.30;24.90;;;12.40;50.20;;;;;;5006364;28;20920;-88
2022/04/27 09:53:19;;;;;;;24.17;22.97;;;12.30;49.10;;;;;;5012545;28;20475;-88
2022/04/27 09:55:50;;;;;;;26.53;25.13;;;12.30;49.00;;;;;;5018199;28;20424;-88
2022/04/27 09:58:18;;;;;;;26.30;24.90;;;12.40;50.40;;;;;;5017719;28;20424;-88
2022/04/27 10:00:45;;;;;;;27.43;25.87;;;12.40;49.00;;;;;;5017826;28;20494;-88
2022/04/27 10:03:18;;;;;;;25.60;24.30;;;12.50;49.60;;;;;;5017684;28;20407;-86
2022/04/27 10:05:45;;;;;;;27.20;25.80;;;12.50;48.80;;;;;;5018616;28;20467;-88
2022/04/27 10:08:11;;;;;;;25.93;24.70;;;12.60;46.70;;;;;;5017900;28;20514;-88
2022/04/27 10:10:41;;;;;;;24.67;23.53;;;12.60;47.00;;;;;;5017869;28;20506;-88
2022/04/27 10:13:12;;;;;;;26.03;24.73;;;12.80;48.40;;;;;;5016523;28;20428;-88
2022/04/27 10:15:46;;;;;;;27.70;26.30;;;12.80;47.80;;;;;;5016509;28;20507;-88
2022/04/27 10:18:17;;;;;;;27.50;25.90;;;13.10;45.80;;;;;;5016627;28;20433;-89
2022/04/27 10:20:43;;;;;;;26.53;25.33;;;13.10;45.40;;;;;;5017714;28;20939;-87
2022/04/27 10:23:15;;;;;;;24.40;23.30;;;13.20;47.50;;;;;;5016866;28;20629;-88
2022/04/27 10:25:41;;;;;;;25.17;24.07;;;13.40;46.50;;;;;;5016263;28;20467;-87
2022/04/27 10:28:24;;;;;;;27.30;26.00;;;13.40;46.50;;;;;;5017585;28;20503;-89
2022/04/27 10:30:51;;;;;;;24.67;23.57;;;13.50;44.70;;;;;;5028048;28;20851;-88
2022/04/27 10:33:47;;;;;;;25.13;24.00;;;13.40;43.90;;;;;;5004411;28;20490;-89
2022/04/27 10:36:23;;;;;;;26.50;25.40;;;13.30;44.10;;;;;;5014756;28;20416;-88
2022/04/27 10:39:09;;;;;;;25.60;24.57;;;13.30;42.30;;;;;;5016693;28;21130;-88
2022/04/27 10:41:35;;;;;;;27.20;25.87;;;13.40;44.00;;;;;;4999770;28;20412;-87
2022/04/27 10:44:01;;;;;;;25.37;24.27;;;13.30;44.50;;;;;;5015801;28;20412;-87
2022/04/27 10:46:41;;;;;;;26.80;25.40;;;13.40;44.60;;;;;;5032489;28;20489;-82
2022/04/27 10:49:28;;;;;;;26.37;25.13;;;13.60;44.30;;;;;;5016523;28;20177;-88
2022/04/27 10:52:08;;;;;;;27.67;26.20;;;13.70;43.80;;;;;;5017857;28;20419;-90
2022/04/27 10:54:38;;;;;;;28.03;26.63;;;13.80;41.60;;;;;;5017439;28;20493;-90
2022/04/27 10:57:16;;;;;;;27.43;26.17;;;13.70;42.00;;;;;;5017091;28;20470;-90
2022/04/27 10:59:47;;;;;;;26.37;25.17;;;13.60;41.80;;;;;;5016281;28;20415;-90
2022/04/27 11:02:41;;;;;;;25.73;24.53;;;13.50;42.00;;;;;;5016099;28;20463;-91
2022/04/27 11:05:10;;;;;;;27.27;25.97;;;13.50;42.80;;;;;;5033427;28;20459;-91
2022/04/27 11:07:41;;;;;;;27.37;25.97;;;13.50;42.90;;;;;;5016577;28;20404;-91
2022/04/27 11:10:14;;;;;;;27.70;26.40;;;13.40;41.60;;;;;;5016535;28;20959;-90
2022/04/27 11:12:46;;;;;;;26.57;25.37;;;13.30;42.60;;;;;;5015825;28;20414;-90
2022/04/27 11:15:21;;;;;;;27.40;26.10;;;13.40;42.10;;;;;;5016161;28;20796;-89
2022/04/27 11:18:01;;;;;;;26.80;25.70;;;13.50;43.10;;;;;;5016200;28;21053;-89
2022/04/27 11:20:39;;;;;;;28.20;26.90;;;13.60;42.90;;;;;;5016306;28;20923;-90
2022/04/27 11:23:07;;;;;;;27.80;26.57;;;13.70;43.30;;;;;;5016247;28;20937;-90
2022/04/27 11:25:39;;;;;;;26.20;25.00;;;13.70;41.30;;;;;;5013335;28;20448;-91
2022/04/27 11:28:06;;;;;;;26.60;25.40;;;13.70;42.20;;;;;;5032987;28;20923;-91
2022/04/27 11:30:33;;;;;;;29.10;27.60;;;13.80;42.10;;;;;;5014034;28;20420;-90
2022/04/27 11:33:03;;;;;;;26.13;24.53;;;13.80;42.00;;;;;;5012289;28;20784;-91
2022/04/27 11:35:44;;;;;;;26.30;25.00;;;14.00;41.90;;;;;;5012506;28;20424;-91
2022/04/27 11:38:15;;;;;;;26.40;25.20;;;14.30;41.40;;;;;;5009026;28;20773;-92
2022/04/27 11:40:41;;;;;;;27.17;25.83;;;14.40;41.90;;;;;;5010590;28;20850;-90
2022/04/27 11:43:07;;;;;;;26.40;24.90;;;14.50;41.30;;;;;;5009265;28;20483;-91
2022/04/27 11:45:33;;;;;;;27.53;26.23;;;14.50;40.50;;;;;;4996435;28;20507;-90
2022/04/27 11:48:04;;;;;;;25.37;24.17;;;14.60;40.40;;;;;;4996460;28;20611;-91
2022/04/27 11:50:31;;;;;;;26.83;25.63;;;14.70;38.30;;;;;;4996279;28;20594;-90
2022/04/27 11:53:00;;;;;;;26.00;24.80;;;14.50;38.60;;;;;;4995621;28;20413;-92
2022/04/27 11:55:27;;;;;;;26.33;25.13;;;14.40;41.10;;;;;;4996584;28;20770;-91
2022/04/27 11:57:53;;;;;;;25.90;24.70;;;14.40;40.80;;;;;;4998882;28;20416;-92
2022/04/27 12:00:20;;;;;;;25.80;24.70;;;14.40;41.10;;;;;;5000044;28;20431;-91
2022/04/27 12:02:47;;;;;;;27.80;26.50;;;14.40;39.70;;;;;;4999858;28;20416;-90
2022/04/27 12:05:15;;;;;;;30.30;28.90;;;14.50;39.90;;;;;;4998701;28;20438;-90
2022/04/27 12:07:47;;;;;;;28.33;27.03;;;14.60;38.70;;;;;;5000140;28;20228;-92
2022/04/27 12:10:14;;;;;;;26.33;25.13;;;14.70;38.30;;;;;;4999916;28;20420;-90
2022/04/27 12:12:40;;;;;;;30.13;28.70;;;14.70;37.60;;;;;;4999975;28;20408;-91
2022/04/27 12:15:08;;;;;;;29.50;27.50;;;14.70;36.60;;;;;;4999719;28;20855;-91
2022/04/27 12:17:51;;;;;;;28.10;26.70;;;14.70;38.50;;;;;;5000019;28;20419;-90
2022/04/27 12:20:39;;;;;;;28.67;27.07;;;14.80;38.50;;;;;;4999745;28;20470;-90
2022/04/27 12:23:09;;;;;;;28.63;27.23;;;15.00;36.20;;;;;;4999793;28;20426;-90
2022/04/27 12:26:07;;;;;;;29.67;28.17;;;15.10;36.00;;;;;;4999969;28;20839;-91
2022/04/27 12:28:46;;;;;;;29.03;27.83;;;15.10;37.70;;;;;;4968605;28;20413;-90
2022/04/27 12:31:14;;;;;;;28.73;27.37;;;14.90;35.80;;;;;;5000884;28;20869;-81
2022/04/27 12:33:45;;;;;;;30.33;28.93;;;14.90;37.40;;;;;;5000422;28;20495;-85
2022/04/27 12:39:04;;;;;;;29.33;27.93;;;14.90;36.80;;;;;;5018056;28;20474;-90
2022/04/27 12:41:40;;;;;;;27.97;26.70;;;14.90;37.30;;;;;;4999510;28;20419;-90
2022/04/27 12:44:06;;;;;;;28.40;27.00;;;14.90;38.00;;;;;;4999137;28;20486;-90
2022/04/27 12:46:32;;;;;;;27.57;26.37;;;14.80;36.70;;;;;;4998877;28;20467;-90
2022/04/27 12:49:05;;;;;;;27.57;26.30;;;14.80;36.80;;;;;;4999298;28;20423;-90
2022/04/27 12:51:34;;;;;;;26.53;25.33;;;14.70;37.10;;;;;;4999473;28;20712;-89
2022/04/27 12:54:03;;;;;;;27.40;26.10;;;14.80;36.40;;;;;;4999810;28;20412;-87
2022/04/27 12:56:35;;;;;;;28.40;27.10;;;14.70;37.10;;;;;;5032071;28;20455;-88
2022/04/27 12:59:10;;;;;;;27.83;26.60;;;14.60;36.30;;;;;;5015151;28;20429;-87